sensor_id;sensor_type;location;lat;lon;timestamp;P1;durP1;ratioP1;P2;durP2;ratioP2
22935;SDS011;11633;42.716;23.312;2022-12-24T00:02:15;65.82;;;36.83;;
22935;SDS011;11633;42.716;23.312;2022-12-24T00:04:41;54.28;;;31.05;;
22935;SDS011;11633;42.716;23.312;2022-12-24T00:07:07;58.33;;;32.15;;
22935;SDS011;11633;42.716;23.312;2022-12-24T00:09:32;61.20;;;32.58;;
22935;SDS011;11633;42.716;23.312;2022-12-24T00:11:57;60.30;;;31.23;;
22935;SDS011;11633;42.716;23.312;2022-12-24T00:14:23;63.30;;;33.38;;
22935;SDS011;11633;42.716;23.312;2022-12-24T00:16:49;57.83;;;30.70;;
22935;SDS011;11633;42.716;23.312;2022-12-24T00:19:14;56.05;;;29.98;;
22935;SDS011;11633;42.716;23.312;2022-12-24T00:21:39;61.65;;;30.52;;
22935;SDS011;11633;42.716;23.312;2022-12-24T00:24:04;58.20;;;30.45;;
22935;SDS011;11633;42.716;23.312;2022-12-24T00:26:30;60.88;;;33.60;;
22935;SDS011;11633;42.716;23.312;2022-12-24T00:28:56;62.50;;;35.33;;
22935;SDS011;11633;42.716;23.312;2022-12-24T00:31:21;65.55;;;36.10;;
22935;SDS011;11633;42.716;23.312;2022-12-24T00:33:46;59.78;;;33.30;;
22935;SDS011;11633;42.716;23.312;2022-12-24T00:36:12;63.42;;;36.20;;
22935;SDS011;11633;42.716;23.312;2022-12-24T00:38:37;62.33;;;35.33;;
22935;SDS011;11633;42.716;23.312;2022-12-24T00:41:03;85.30;;;42.10;;
22935;SDS011;11633;42.716;23.312;2022-12-24T00:43:30;84.22;;;44.33;;
22935;SDS011;11633;42.716;23.312;2022-12-24T00:45:55;86.72;;;45.17;;
22935;SDS011;11633;42.716;23.312;2022-12-24T00:48:21;99.00;;;54.55;;
22935;SDS011;11633;42.716;23.312;2022-12-24T00:50:47;107.95;;;51.85;;
22935;SDS011;11633;42.716;23.312;2022-12-24T00:53:12;146.68;;;73.20;;
22935;SDS011;11633;42.716;23.312;2022-12-24T00:55:37;137.70;;;71.88;;
22935;SDS011;11633;42.716;23.312;2022-12-24T00:58:02;169.35;;;82.03;;
22935;SDS011;11633;42.716;23.312;2022-12-24T01:00:28;149.13;;;72.18;;
22935;SDS011;11633;42.716;23.312;2022-12-24T01:02:53;142.52;;;69.88;;
22935;SDS011;11633;42.716;23.312;2022-12-24T01:05:18;132.95;;;61.70;;
22935;SDS011;11633;42.716;23.312;2022-12-24T01:07:45;124.50;;;62.67;;
22935;SDS011;11633;42.716;23.312;2022-12-24T01:10:11;124.68;;;59.78;;
22935;SDS011;11633;42.716;23.312;2022-12-24T01:12:37;108.15;;;53.85;;
22935;SDS011;11633;42.716;23.312;2022-12-24T01:15:02;110.63;;;55.20;;
22935;SDS011;11633;42.716;23.312;2022-12-24T01:17:29;113.93;;;56.72;;
22935;SDS011;11633;42.716;23.312;2022-12-24T01:19:55;109.20;;;51.90;;
22935;SDS011;11633;42.716;23.312;2022-12-24T01:22:20;101.85;;;51.70;;
22935;SDS011;11633;42.716;23.312;2022-12-24T01:24:45;103.03;;;52.53;;
22935;SDS011;11633;42.716;23.312;2022-12-24T01:27:10;99.65;;;54.17;;
22935;SDS011;11633;42.716;23.312;2022-12-24T01:29:36;105.72;;;53.72;;
22935;SDS011;11633;42.716;23.312;2022-12-24T01:32:01;101.90;;;51.83;;
22935;SDS011;11633;42.716;23.312;2022-12-24T01:34:26;107.93;;;53.78;;
22935;SDS011;11633;42.716;23.312;2022-12-24T01:36:52;108.97;;;55.72;;
22935;SDS011;11633;42.716;23.312;2022-12-24T01:39:17;112.18;;;56.55;;
22935;SDS011;11633;42.716;23.312;2022-12-24T01:41:42;89.47;;;49.35;;
22935;SDS011;11633;42.716;23.312;2022-12-24T01:44:27;86.05;;;43.60;;
22935;SDS011;11633;42.716;23.312;2022-12-24T01:47:18;91.70;;;44.88;;
22935;SDS011;11633;42.716;23.312;2022-12-24T01:49:46;84.65;;;44.47;;
22935;SDS011;11633;42.716;23.312;2022-12-24T01:52:16;93.35;;;47.85;;
22935;SDS011;11633;42.716;23.312;2022-12-24T01:54:45;86.32;;;47.88;;
22935;SDS011;11633;42.716;23.312;2022-12-24T01:57:17;87.32;;;45.33;;
22935;SDS011;11633;42.716;23.312;2022-12-24T01:59:46;81.57;;;43.33;;
22935;SDS011;11633;42.716;23.312;2022-12-24T02:02:13;85.45;;;44.50;;
22935;SDS011;11633;42.716;23.312;2022-12-24T02:04:41;80.25;;;43.47;;
22935;SDS011;11633;42.716;23.312;2022-12-24T02:07:08;76.03;;;38.72;;
22935;SDS011;11633;42.716;23.312;2022-12-24T02:09:33;87.57;;;42.10;;
22935;SDS011;11633;42.716;23.312;2022-12-24T02:11:59;73.13;;;40.78;;
22935;SDS011;11633;42.716;23.312;2022-12-24T02:14:25;76.85;;;39.97;;
22935;SDS011;11633;42.716;23.312;2022-12-24T02:17:05;71.47;;;38.22;;
22935;SDS011;11633;42.716;23.312;2022-12-24T02:30:32;82.82;;;39.65;;
22935;SDS011;11633;42.716;23.312;2022-12-24T02:35:47;89.15;;;42.30;;
22935;SDS011;11633;42.716;23.312;2022-12-24T02:38:15;82.90;;;36.58;;
22935;SDS011;11633;42.716;23.312;2022-12-24T02:40:44;84.40;;;37.58;;
22935;SDS011;11633;42.716;23.312;2022-12-24T02:43:12;89.45;;;40.15;;
22935;SDS011;11633;42.716;23.312;2022-12-24T02:45:39;102.40;;;44.95;;
22935;SDS011;11633;42.716;23.312;2022-12-24T02:48:04;89.22;;;44.13;;
22935;SDS011;11633;42.716;23.312;2022-12-24T02:50:30;94.50;;;45.88;;
22935;SDS011;11633;42.716;23.312;2022-12-24T02:52:55;87.10;;;42.85;;
22935;SDS011;11633;42.716;23.312;2022-12-24T02:58:19;96.57;;;42.50;;
22935;SDS011;11633;42.716;23.312;2022-12-24T03:03:37;92.70;;;41.08;;
22935;SDS011;11633;42.716;23.312;2022-12-24T03:06:07;91.57;;;42.53;;
22935;SDS011;11633;42.716;23.312;2022-12-24T03:11:04;81.07;;;40.72;;
22935;SDS011;11633;42.716;23.312;2022-12-24T03:13:32;76.47;;;37.50;;
22935;SDS011;11633;42.716;23.312;2022-12-24T03:15:58;65.53;;;33.67;;
22935;SDS011;11633;42.716;23.312;2022-12-24T03:18:23;51.47;;;27.35;;
22935;SDS011;11633;42.716;23.312;2022-12-24T03:20:57;56.22;;;29.38;;
22935;SDS011;11633;42.716;23.312;2022-12-24T03:23:24;50.25;;;25.83;;
22935;SDS011;11633;42.716;23.312;2022-12-24T03:25:50;50.15;;;24.83;;
22935;SDS011;11633;42.716;23.312;2022-12-24T03:28:15;44.70;;;23.85;;
22935;SDS011;11633;42.716;23.312;2022-12-24T03:30:42;27.67;;;16.92;;
22935;SDS011;11633;42.716;23.312;2022-12-24T03:33:08;46.20;;;24.27;;
22935;SDS011;11633;42.716;23.312;2022-12-24T03:35:33;71.35;;;35.03;;
22935;SDS011;11633;42.716;23.312;2022-12-24T03:37:59;66.45;;;31.00;;
22935;SDS011;11633;42.716;23.312;2022-12-24T03:40:24;69.78;;;34.42;;
22935;SDS011;11633;42.716;23.312;2022-12-24T03:42:49;78.45;;;35.97;;
22935;SDS011;11633;42.716;23.312;2022-12-24T03:45:14;67.07;;;33.08;;
22935;SDS011;11633;42.716;23.312;2022-12-24T03:47:40;65.68;;;32.83;;
22935;SDS011;11633;42.716;23.312;2022-12-24T03:50:05;56.67;;;30.23;;
22935;SDS011;11633;42.716;23.312;2022-12-24T03:52:30;62.15;;;31.63;;
22935;SDS011;11633;42.716;23.312;2022-12-24T03:54:56;70.43;;;32.72;;
22935;SDS011;11633;42.716;23.312;2022-12-24T03:57:21;61.83;;;31.35;;
22935;SDS011;11633;42.716;23.312;2022-12-24T03:59:46;57.40;;;32.00;;
22935;SDS011;11633;42.716;23.312;2022-12-24T04:02:11;58.83;;;28.67;;
22935;SDS011;11633;42.716;23.312;2022-12-24T04:04:37;57.42;;;29.73;;
22935;SDS011;11633;42.716;23.312;2022-12-24T04:07:03;63.97;;;30.05;;
22935;SDS011;11633;42.716;23.312;2022-12-24T04:09:28;60.80;;;26.83;;
22935;SDS011;11633;42.716;23.312;2022-12-24T04:11:53;58.30;;;26.45;;
22935;SDS011;11633;42.716;23.312;2022-12-24T04:14:18;49.28;;;25.70;;
22935;SDS011;11633;42.716;23.312;2022-12-24T04:16:44;50.30;;;24.52;;
22935;SDS011;11633;42.716;23.312;2022-12-24T04:19:09;50.38;;;26.42;;
22935;SDS011;11633;42.716;23.312;2022-12-24T04:21:34;60.58;;;31.10;;
22935;SDS011;11633;42.716;23.312;2022-12-24T04:23:59;63.63;;;28.33;;
22935;SDS011;11633;42.716;23.312;2022-12-24T04:26:25;69.13;;;29.10;;
22935;SDS011;11633;42.716;23.312;2022-12-24T04:28:50;59.38;;;30.00;;
22935;SDS011;11633;42.716;23.312;2022-12-24T04:31:15;51.83;;;28.27;;
22935;SDS011;11633;42.716;23.312;2022-12-24T04:33:41;64.07;;;30.13;;
22935;SDS011;11633;42.716;23.312;2022-12-24T04:36:07;56.55;;;28.98;;
22935;SDS011;11633;42.716;23.312;2022-12-24T04:38:33;55.22;;;28.52;;
22935;SDS011;11633;42.716;23.312;2022-12-24T04:41:02;56.13;;;27.73;;
22935;SDS011;11633;42.716;23.312;2022-12-24T04:43:28;53.67;;;27.38;;
22935;SDS011;11633;42.716;23.312;2022-12-24T04:45:54;51.17;;;27.40;;
22935;SDS011;11633;42.716;23.312;2022-12-24T04:48:19;60.95;;;28.67;;
22935;SDS011;11633;42.716;23.312;2022-12-24T04:50:44;64.03;;;29.08;;
22935;SDS011;11633;42.716;23.312;2022-12-24T04:53:09;54.08;;;28.15;;
22935;SDS011;11633;42.716;23.312;2022-12-24T04:55:35;52.30;;;27.08;;
22935;SDS011;11633;42.716;23.312;2022-12-24T04:58:00;73.13;;;34.65;;
22935;SDS011;11633;42.716;23.312;2022-12-24T05:00:25;65.20;;;30.23;;
22935;SDS011;11633;42.716;23.312;2022-12-24T05:02:50;59.65;;;29.75;;
22935;SDS011;11633;42.716;23.312;2022-12-24T05:05:16;66.15;;;31.23;;
22935;SDS011;11633;42.716;23.312;2022-12-24T05:07:41;64.15;;;31.65;;
22935;SDS011;11633;42.716;23.312;2022-12-24T05:10:08;74.03;;;33.22;;
22935;SDS011;11633;42.716;23.312;2022-12-24T05:12:35;71.97;;;32.28;;
22935;SDS011;11633;42.716;23.312;2022-12-24T05:15:00;62.15;;;27.50;;
22935;SDS011;11633;42.716;23.312;2022-12-24T05:17:25;60.05;;;26.48;;
22935;SDS011;11633;42.716;23.312;2022-12-24T05:19:50;52.33;;;24.95;;
22935;SDS011;11633;42.716;23.312;2022-12-24T05:22:16;59.95;;;26.98;;
22935;SDS011;11633;42.716;23.312;2022-12-24T05:24:59;55.67;;;26.83;;
22935;SDS011;11633;42.716;23.312;2022-12-24T05:27:43;58.15;;;26.98;;
22935;SDS011;11633;42.716;23.312;2022-12-24T05:30:09;73.03;;;30.63;;
22935;SDS011;11633;42.716;23.312;2022-12-24T05:32:34;74.15;;;33.25;;
22935;SDS011;11633;42.716;23.312;2022-12-24T05:34:59;69.65;;;32.97;;
22935;SDS011;11633;42.716;23.312;2022-12-24T05:37:25;69.35;;;28.23;;
22935;SDS011;11633;42.716;23.312;2022-12-24T05:39:50;55.90;;;27.15;;
22935;SDS011;11633;42.716;23.312;2022-12-24T05:42:15;42.20;;;22.08;;
22935;SDS011;11633;42.716;23.312;2022-12-24T05:44:40;38.00;;;19.90;;
22935;SDS011;11633;42.716;23.312;2022-12-24T05:47:05;26.50;;;15.48;;
22935;SDS011;11633;42.716;23.312;2022-12-24T05:49:31;41.15;;;17.60;;
22935;SDS011;11633;42.716;23.312;2022-12-24T05:51:56;48.42;;;20.83;;
22935;SDS011;11633;42.716;23.312;2022-12-24T05:54:21;50.33;;;23.50;;
22935;SDS011;11633;42.716;23.312;2022-12-24T05:56:47;45.72;;;22.15;;
22935;SDS011;11633;42.716;23.312;2022-12-24T05:59:12;51.42;;;24.33;;
22935;SDS011;11633;42.716;23.312;2022-12-24T06:01:37;51.00;;;21.83;;
22935;SDS011;11633;42.716;23.312;2022-12-24T06:04:03;42.65;;;20.02;;
22935;SDS011;11633;42.716;23.312;2022-12-24T06:06:28;47.53;;;22.30;;
22935;SDS011;11633;42.716;23.312;2022-12-24T06:08:54;47.03;;;24.67;;
22935;SDS011;11633;42.716;23.312;2022-12-24T06:11:23;40.08;;;18.80;;
22935;SDS011;11633;42.716;23.312;2022-12-24T06:13:48;45.03;;;20.35;;
22935;SDS011;11633;42.716;23.312;2022-12-24T06:16:14;36.30;;;18.83;;
22935;SDS011;11633;42.716;23.312;2022-12-24T06:18:40;36.42;;;20.15;;
22935;SDS011;11633;42.716;23.312;2022-12-24T06:21:05;44.47;;;24.13;;
22935;SDS011;11633;42.716;23.312;2022-12-24T06:23:31;35.83;;;21.70;;
22935;SDS011;11633;42.716;23.312;2022-12-24T06:25:57;36.70;;;20.02;;
22935;SDS011;11633;42.716;23.312;2022-12-24T06:28:25;46.88;;;22.35;;
22935;SDS011;11633;42.716;23.312;2022-12-24T06:30:50;41.38;;;22.15;;
22935;SDS011;11633;42.716;23.312;2022-12-24T06:33:15;46.25;;;25.83;;
22935;SDS011;11633;42.716;23.312;2022-12-24T06:35:41;45.17;;;24.10;;
22935;SDS011;11633;42.716;23.312;2022-12-24T06:38:08;40.65;;;21.27;;
22935;SDS011;11633;42.716;23.312;2022-12-24T06:40:33;40.28;;;22.05;;
22935;SDS011;11633;42.716;23.312;2022-12-24T06:42:58;41.58;;;19.60;;
22935;SDS011;11633;42.716;23.312;2022-12-24T06:45:24;37.05;;;20.88;;
22935;SDS011;11633;42.716;23.312;2022-12-24T06:47:49;34.67;;;21.00;;
22935;SDS011;11633;42.716;23.312;2022-12-24T06:50:14;51.90;;;24.67;;
22935;SDS011;11633;42.716;23.312;2022-12-24T06:52:39;54.05;;;28.92;;
22935;SDS011;11633;42.716;23.312;2022-12-24T06:55:05;63.20;;;28.88;;
22935;SDS011;11633;42.716;23.312;2022-12-24T06:57:30;64.65;;;30.35;;
22935;SDS011;11633;42.716;23.312;2022-12-24T06:59:58;63.95;;;28.48;;
22935;SDS011;11633;42.716;23.312;2022-12-24T07:02:24;53.50;;;27.65;;
22935;SDS011;11633;42.716;23.312;2022-12-24T07:04:49;59.63;;;26.83;;
22935;SDS011;11633;42.716;23.312;2022-12-24T07:07:14;70.30;;;33.78;;
22935;SDS011;11633;42.716;23.312;2022-12-24T07:09:39;68.45;;;34.67;;
22935;SDS011;11633;42.716;23.312;2022-12-24T07:12:05;83.38;;;37.22;;
22935;SDS011;11633;42.716;23.312;2022-12-24T07:14:30;67.68;;;33.13;;
22935;SDS011;11633;42.716;23.312;2022-12-24T07:16:56;61.67;;;32.55;;
22935;SDS011;11633;42.716;23.312;2022-12-24T07:19:22;68.53;;;33.75;;
22935;SDS011;11633;42.716;23.312;2022-12-24T07:21:47;72.68;;;34.45;;
22935;SDS011;11633;42.716;23.312;2022-12-24T07:24:14;67.03;;;35.75;;
22935;SDS011;11633;42.716;23.312;2022-12-24T07:26:39;60.35;;;34.47;;
22935;SDS011;11633;42.716;23.312;2022-12-24T07:29:04;71.45;;;35.97;;
22935;SDS011;11633;42.716;23.312;2022-12-24T07:31:29;64.32;;;34.03;;
22935;SDS011;11633;42.716;23.312;2022-12-24T07:33:55;62.67;;;33.72;;
22935;SDS011;11633;42.716;23.312;2022-12-24T07:36:20;70.53;;;34.95;;
22935;SDS011;11633;42.716;23.312;2022-12-24T07:38:46;74.03;;;36.83;;
22935;SDS011;11633;42.716;23.312;2022-12-24T07:41:11;63.60;;;33.60;;
22935;SDS011;11633;42.716;23.312;2022-12-24T07:43:36;64.78;;;34.97;;
22935;SDS011;11633;42.716;23.312;2022-12-24T07:46:01;64.80;;;37.28;;
22935;SDS011;11633;42.716;23.312;2022-12-24T07:48:27;69.80;;;35.70;;
22935;SDS011;11633;42.716;23.312;2022-12-24T07:50:54;63.95;;;36.67;;
22935;SDS011;11633;42.716;23.312;2022-12-24T07:53:19;69.97;;;37.92;;
22935;SDS011;11633;42.716;23.312;2022-12-24T07:55:45;66.18;;;33.55;;
22935;SDS011;11633;42.716;23.312;2022-12-24T07:58:10;70.13;;;36.60;;
22935;SDS011;11633;42.716;23.312;2022-12-24T08:00:35;63.22;;;37.38;;
22935;SDS011;11633;42.716;23.312;2022-12-24T08:03:01;64.70;;;35.08;;
22935;SDS011;11633;42.716;23.312;2022-12-24T08:05:26;67.25;;;35.67;;
22935;SDS011;11633;42.716;23.312;2022-12-24T08:07:52;63.03;;;34.95;;
22935;SDS011;11633;42.716;23.312;2022-12-24T08:10:17;64.97;;;36.25;;
22935;SDS011;11633;42.716;23.312;2022-12-24T08:12:42;63.13;;;38.13;;
22935;SDS011;11633;42.716;23.312;2022-12-24T08:15:07;76.45;;;39.85;;
22935;SDS011;11633;42.716;23.312;2022-12-24T08:17:33;71.70;;;39.92;;
22935;SDS011;11633;42.716;23.312;2022-12-24T08:19:58;72.70;;;39.47;;
22935;SDS011;11633;42.716;23.312;2022-12-24T08:22:24;65.20;;;37.78;;
22935;SDS011;11633;42.716;23.312;2022-12-24T08:24:49;62.92;;;34.35;;
22935;SDS011;11633;42.716;23.312;2022-12-24T08:27:14;50.78;;;32.75;;
22935;SDS011;11633;42.716;23.312;2022-12-24T08:29:40;57.33;;;33.17;;
22935;SDS011;11633;42.716;23.312;2022-12-24T08:32:05;63.55;;;34.60;;
22935;SDS011;11633;42.716;23.312;2022-12-24T08:34:30;58.85;;;36.10;;
22935;SDS011;11633;42.716;23.312;2022-12-24T08:36:56;65.97;;;36.53;;
22935;SDS011;11633;42.716;23.312;2022-12-24T08:39:21;65.90;;;38.00;;
22935;SDS011;11633;42.716;23.312;2022-12-24T08:41:47;68.20;;;39.72;;
22935;SDS011;11633;42.716;23.312;2022-12-24T08:44:12;67.90;;;39.80;;
22935;SDS011;11633;42.716;23.312;2022-12-24T08:46:37;70.88;;;40.60;;
22935;SDS011;11633;42.716;23.312;2022-12-24T08:49:02;71.88;;;40.55;;
22935;SDS011;11633;42.716;23.312;2022-12-24T08:51:28;75.50;;;39.42;;
22935;SDS011;11633;42.716;23.312;2022-12-24T08:53:53;62.15;;;39.42;;
22935;SDS011;11633;42.716;23.312;2022-12-24T08:56:18;66.88;;;36.92;;
22935;SDS011;11633;42.716;23.312;2022-12-24T08:58:43;68.40;;;35.33;;
22935;SDS011;11633;42.716;23.312;2022-12-24T09:01:13;72.88;;;35.75;;
22935;SDS011;11633;42.716;23.312;2022-12-24T09:03:38;64.47;;;36.75;;
22935;SDS011;11633;42.716;23.312;2022-12-24T09:06:04;65.15;;;37.80;;
22935;SDS011;11633;42.716;23.312;2022-12-24T09:08:30;64.38;;;37.80;;
22935;SDS011;11633;42.716;23.312;2022-12-24T09:10:55;60.70;;;38.08;;
22935;SDS011;11633;42.716;23.312;2022-12-24T09:13:20;63.60;;;37.50;;
22935;SDS011;11633;42.716;23.312;2022-12-24T09:15:52;65.40;;;37.90;;
22935;SDS011;11633;42.716;23.312;2022-12-24T09:18:18;64.20;;;36.88;;
22935;SDS011;11633;42.716;23.312;2022-12-24T09:20:43;63.58;;;37.25;;
22935;SDS011;11633;42.716;23.312;2022-12-24T09:23:08;60.17;;;35.85;;
22935;SDS011;11633;42.716;23.312;2022-12-24T09:25:33;55.22;;;33.30;;
22935;SDS011;11633;42.716;23.312;2022-12-24T09:27:59;52.25;;;33.03;;
22935;SDS011;11633;42.716;23.312;2022-12-24T09:30:24;58.20;;;32.17;;
22935;SDS011;11633;42.716;23.312;2022-12-24T09:32:50;53.47;;;31.08;;
22935;SDS011;11633;42.716;23.312;2022-12-24T09:35:15;54.33;;;30.75;;
22935;SDS011;11633;42.716;23.312;2022-12-24T09:37:40;55.47;;;30.65;;
22935;SDS011;11633;42.716;23.312;2022-12-24T09:40:06;50.78;;;30.23;;
22935;SDS011;11633;42.716;23.312;2022-12-24T09:45:21;47.45;;;28.60;;
22935;SDS011;11633;42.716;23.312;2022-12-24T09:47:54;50.35;;;29.35;;
22935;SDS011;11633;42.716;23.312;2022-12-24T09:53:09;44.78;;;26.02;;
22935;SDS011;11633;42.716;23.312;2022-12-24T09:55:48;48.00;;;28.63;;
22935;SDS011;11633;42.716;23.312;2022-12-24T09:58:19;46.05;;;28.17;;
22935;SDS011;11633;42.716;23.312;2022-12-24T10:00:45;45.20;;;26.63;;
22935;SDS011;11633;42.716;23.312;2022-12-24T10:03:14;42.58;;;25.77;;
22935;SDS011;11633;42.716;23.312;2022-12-24T10:08:32;40.03;;;25.38;;
22935;SDS011;11633;42.716;23.312;2022-12-24T10:11:01;41.28;;;24.98;;
22935;SDS011;11633;42.716;23.312;2022-12-24T10:13:43;41.28;;;24.52;;
22935;SDS011;11633;42.716;23.312;2022-12-24T10:16:13;46.63;;;25.30;;
22935;SDS011;11633;42.716;23.312;2022-12-24T10:19:32;44.97;;;23.85;;
22935;SDS011;11633;42.716;23.312;2022-12-24T10:24:16;46.08;;;24.77;;
22935;SDS011;11633;42.716;23.312;2022-12-24T10:26:45;44.28;;;26.05;;
22935;SDS011;11633;42.716;23.312;2022-12-24T10:31:40;53.05;;;30.48;;
22935;SDS011;11633;42.716;23.312;2022-12-24T10:34:11;49.38;;;29.15;;
22935;SDS011;11633;42.716;23.312;2022-12-24T10:36:37;49.33;;;27.90;;
22935;SDS011;11633;42.716;23.312;2022-12-24T10:39:03;52.35;;;31.75;;
22935;SDS011;11633;42.716;23.312;2022-12-24T10:41:28;56.55;;;32.10;;
22935;SDS011;11633;42.716;23.312;2022-12-24T10:43:53;48.28;;;31.27;;
22935;SDS011;11633;42.716;23.312;2022-12-24T10:46:35;54.88;;;32.40;;
22935;SDS011;11633;42.716;23.312;2022-12-24T10:49:06;48.90;;;31.65;;
22935;SDS011;11633;42.716;23.312;2022-12-24T10:51:36;49.33;;;29.85;;
22935;SDS011;11633;42.716;23.312;2022-12-24T10:54:11;50.13;;;29.80;;
22935;SDS011;11633;42.716;23.312;2022-12-24T10:57:00;51.88;;;31.77;;
22935;SDS011;11633;42.716;23.312;2022-12-24T10:59:24;52.65;;;29.35;;
22935;SDS011;11633;42.716;23.312;2022-12-24T11:01:50;51.60;;;30.13;;
22935;SDS011;11633;42.716;23.312;2022-12-24T11:04:16;51.17;;;29.80;;
22935;SDS011;11633;42.716;23.312;2022-12-24T11:09:21;58.47;;;33.42;;
22935;SDS011;11633;42.716;23.312;2022-12-24T11:11:46;57.67;;;32.03;;
22935;SDS011;11633;42.716;23.312;2022-12-24T11:14:16;53.13;;;30.25;;
22935;SDS011;11633;42.716;23.312;2022-12-24T11:16:49;56.28;;;29.35;;
22935;SDS011;11633;42.716;23.312;2022-12-24T11:19:15;52.80;;;30.25;;
22935;SDS011;11633;42.716;23.312;2022-12-24T11:21:42;48.70;;;29.27;;
22935;SDS011;11633;42.716;23.312;2022-12-24T11:24:13;47.25;;;29.88;;
22935;SDS011;11633;42.716;23.312;2022-12-24T11:26:43;56.22;;;29.30;;
22935;SDS011;11633;42.716;23.312;2022-12-24T11:31:37;45.53;;;29.02;;
22935;SDS011;11633;42.716;23.312;2022-12-24T11:34:24;50.28;;;29.77;;
22935;SDS011;11633;42.716;23.312;2022-12-24T11:36:49;46.00;;;26.77;;
22935;SDS011;11633;42.716;23.312;2022-12-24T11:39:16;52.30;;;27.35;;
22935;SDS011;11633;42.716;23.312;2022-12-24T11:41:42;43.22;;;28.33;;
22935;SDS011;11633;42.716;23.312;2022-12-24T11:44:08;40.97;;;26.27;;
22935;SDS011;11633;42.716;23.312;2022-12-24T11:46:37;38.30;;;25.08;;
22935;SDS011;11633;42.716;23.312;2022-12-24T11:49:04;42.50;;;25.40;;
22935;SDS011;11633;42.716;23.312;2022-12-24T11:51:29;42.08;;;23.05;;
22935;SDS011;11633;42.716;23.312;2022-12-24T11:53:57;37.60;;;23.00;;
22935;SDS011;11633;42.716;23.312;2022-12-24T11:56:39;37.65;;;22.60;;
22935;SDS011;11633;42.716;23.312;2022-12-24T12:01:55;34.08;;;20.60;;
22935;SDS011;11633;42.716;23.312;2022-12-24T12:04:34;32.88;;;19.58;;
22935;SDS011;11633;42.716;23.312;2022-12-24T12:07:04;37.10;;;20.58;;
22935;SDS011;11633;42.716;23.312;2022-12-24T12:09:31;33.88;;;21.55;;
22935;SDS011;11633;42.716;23.312;2022-12-24T12:12:01;38.65;;;25.08;;
22935;SDS011;11633;42.716;23.312;2022-12-24T12:14:36;37.85;;;22.58;;
22935;SDS011;11633;42.716;23.312;2022-12-24T12:17:05;38.17;;;23.50;;
22935;SDS011;11633;42.716;23.312;2022-12-24T12:19:38;35.53;;;23.27;;
22935;SDS011;11633;42.716;23.312;2022-12-24T12:22:09;37.55;;;23.10;;
22935;SDS011;11633;42.716;23.312;2022-12-24T12:24:43;39.22;;;23.55;;
22935;SDS011;11633;42.716;23.312;2022-12-24T12:27:15;41.40;;;23.52;;
22935;SDS011;11633;42.716;23.312;2022-12-24T12:29:44;39.65;;;23.42;;
22935;SDS011;11633;42.716;23.312;2022-12-24T12:32:12;43.83;;;24.70;;
22935;SDS011;11633;42.716;23.312;2022-12-24T12:34:40;40.65;;;22.92;;
22935;SDS011;11633;42.716;23.312;2022-12-24T12:39:31;43.67;;;26.13;;
22935;SDS011;11633;42.716;23.312;2022-12-24T12:42:14;36.13;;;24.20;;
22935;SDS011;11633;42.716;23.312;2022-12-24T13:01:19;37.38;;;23.60;;
22935;SDS011;11633;42.716;23.312;2022-12-24T13:09:28;38.63;;;24.35;;
22935;SDS011;11633;42.716;23.312;2022-12-24T13:22:25;43.60;;;27.02;;
22935;SDS011;11633;42.716;23.312;2022-12-24T13:24:54;43.17;;;25.70;;
22935;SDS011;11633;42.716;23.312;2022-12-24T13:27:23;45.03;;;26.38;;
22935;SDS011;11633;42.716;23.312;2022-12-24T13:29:51;43.67;;;26.73;;
22935;SDS011;11633;42.716;23.312;2022-12-24T13:34:46;45.25;;;27.27;;
22935;SDS011;11633;42.716;23.312;2022-12-24T13:50:39;45.50;;;28.92;;
22935;SDS011;11633;42.716;23.312;2022-12-24T13:53:05;49.30;;;29.85;;
22935;SDS011;11633;42.716;23.312;2022-12-24T13:55:31;48.15;;;28.98;;
22935;SDS011;11633;42.716;23.312;2022-12-24T13:58:00;57.40;;;32.15;;
22935;SDS011;11633;42.716;23.312;2022-12-24T14:00:31;49.05;;;29.95;;
22935;SDS011;11633;42.716;23.312;2022-12-24T14:03:02;51.83;;;28.70;;
22935;SDS011;11633;42.716;23.312;2022-12-24T14:06:03;55.60;;;30.15;;
22935;SDS011;11633;42.716;23.312;2022-12-24T14:18:48;47.80;;;29.52;;
22935;SDS011;11633;42.716;23.312;2022-12-24T14:21:19;54.17;;;30.90;;
22935;SDS011;11633;42.716;23.312;2022-12-24T14:26:22;57.00;;;30.65;;
22935;SDS011;11633;42.716;23.312;2022-12-24T14:28:58;47.67;;;28.15;;
22935;SDS011;11633;42.716;23.312;2022-12-24T14:31:24;49.97;;;29.58;;
22935;SDS011;11633;42.716;23.312;2022-12-24T14:33:49;53.58;;;29.70;;
22935;SDS011;11633;42.716;23.312;2022-12-24T14:36:21;49.70;;;31.00;;
22935;SDS011;11633;42.716;23.312;2022-12-24T14:38:47;55.42;;;30.83;;
22935;SDS011;11633;42.716;23.312;2022-12-24T14:41:22;46.95;;;30.02;;
22935;SDS011;11633;42.716;23.312;2022-12-24T14:46:20;53.60;;;31.20;;
22935;SDS011;11633;42.716;23.312;2022-12-24T14:54:09;50.13;;;29.88;;
22935;SDS011;11633;42.716;23.312;2022-12-24T14:56:37;39.00;;;25.05;;
22935;SDS011;11633;42.716;23.312;2022-12-24T14:59:23;38.40;;;23.20;;
22935;SDS011;11633;42.716;23.312;2022-12-24T15:01:48;30.15;;;18.08;;
22935;SDS011;11633;42.716;23.312;2022-12-24T15:04:15;29.05;;;16.98;;
22935;SDS011;11633;42.716;23.312;2022-12-24T15:09:18;21.48;;;13.48;;
22935;SDS011;11633;42.716;23.312;2022-12-24T15:11:44;21.27;;;12.27;;
22935;SDS011;11633;42.716;23.312;2022-12-24T15:14:10;19.30;;;11.50;;
22935;SDS011;11633;42.716;23.312;2022-12-24T15:16:36;18.58;;;10.60;;
22935;SDS011;11633;42.716;23.312;2022-12-24T15:19:03;14.48;;;9.50;;
22935;SDS011;11633;42.716;23.312;2022-12-24T15:21:31;12.63;;;8.90;;
22935;SDS011;11633;42.716;23.312;2022-12-24T15:23:57;13.85;;;8.23;;
22935;SDS011;11633;42.716;23.312;2022-12-24T15:28:50;10.52;;;7.53;;
22935;SDS011;11633;42.716;23.312;2022-12-24T15:31:16;13.32;;;7.28;;
22935;SDS011;11633;42.716;23.312;2022-12-24T15:33:46;9.27;;;6.90;;
22935;SDS011;11633;42.716;23.312;2022-12-24T15:36:11;10.90;;;7.35;;
22935;SDS011;11633;42.716;23.312;2022-12-24T15:38:44;9.63;;;6.63;;
22935;SDS011;11633;42.716;23.312;2022-12-24T15:41:29;8.38;;;6.25;;
22935;SDS011;11633;42.716;23.312;2022-12-24T15:43:58;10.48;;;7.30;;
22935;SDS011;11633;42.716;23.312;2022-12-24T15:46:25;10.25;;;6.78;;
22935;SDS011;11633;42.716;23.312;2022-12-24T15:48:51;11.45;;;5.10;;
22935;SDS011;11633;42.716;23.312;2022-12-24T15:51:22;10.65;;;5.47;;
22935;SDS011;11633;42.716;23.312;2022-12-24T15:53:47;8.85;;;5.53;;
22935;SDS011;11633;42.716;23.312;2022-12-24T16:01:55;8.38;;;5.07;;
22935;SDS011;11633;42.716;23.312;2022-12-24T16:06:56;8.15;;;5.53;;
22935;SDS011;11633;42.716;23.312;2022-12-24T16:11:56;11.70;;;5.85;;
22935;SDS011;11633;42.716;23.312;2022-12-24T16:14:21;9.20;;;5.80;;
22935;SDS011;11633;42.716;23.312;2022-12-24T16:16:47;12.30;;;5.70;;
22935;SDS011;11633;42.716;23.312;2022-12-24T16:19:23;8.70;;;6.18;;
22935;SDS011;11633;42.716;23.312;2022-12-24T16:22:08;10.00;;;5.28;;